createdAt,value
2018-09-14T00:00:26.010Z,99.99
2018-09-14T00:01:26.156Z,99.99
2018-09-14T00:02:26.310Z,99.99
2018-09-14T00:03:26.465Z,99.99
2018-09-14T00:04:26.614Z,99.99
2018-09-14T00:05:26.766Z,99.99
2018-09-14T00:06:26.916Z,99.99
2018-09-14T00:07:27.067Z,99.99
2018-09-14T00:08:27.218Z,99.99
2018-09-14T00:09:27.375Z,99.99
2018-09-14T00:10:27.526Z,99.99
2018-09-14T00:11:27.684Z,99.99
2018-09-14T00:12:27.831Z,99.99
2018-09-14T00:13:27.985Z,99.99
2018-09-14T00:14:28.137Z,99.99
2018-09-14T00:15:28.290Z,99.99
2018-09-14T00:16:28.441Z,99.99
2018-09-14T00:17:28.595Z,99.99
2018-09-14T00:18:28.745Z,99.99
2018-09-14T00:19:28.899Z,99.99
2018-09-14T00:20:29.052Z,99.99
2018-09-14T00:21:29.206Z,99.99
2018-09-14T00:22:29.356Z,99.99
2018-09-14T00:23:29.511Z,99.99
2018-09-14T00:24:29.662Z,99.99
2018-09-14T00:25:29.815Z,99.99
2018-09-14T00:26:29.964Z,99.99
2018-09-14T00:27:30.122Z,99.99
2018-09-14T00:28:30.273Z,99.99
2018-09-14T00:29:30.427Z,99.99
2018-09-14T00:30:30.576Z,99.99
2018-09-14T00:31:30.728Z,99.99
2018-09-14T00:32:30.882Z,99.99
2018-09-14T00:33:31.033Z,99.99
2018-09-14T00:34:31.186Z,99.99
2018-09-14T00:35:31.337Z,99.99
2018-09-14T00:36:31.492Z,99.99
2018-09-14T00:37:31.643Z,99.99
2018-09-14T00:38:31.803Z,99.99
2018-09-14T00:39:31.949Z,99.99
2018-09-14T00:40:32.103Z,99.99
2018-09-14T00:41:32.252Z,99.99
2018-09-14T00:42:32.405Z,99.99
2018-09-14T00:43:32.561Z,99.99
2018-09-14T00:44:32.710Z,99.99
2018-09-14T00:45:32.865Z,99.99
2018-09-14T00:46:33.018Z,99.99
2018-09-14T00:47:33.177Z,99.99
2018-09-14T00:48:33.328Z,99.99
2018-09-14T00:49:33.478Z,99.99
2018-09-14T00:50:33.632Z,99.99
2018-09-14T00:51:33.781Z,99.99
2018-09-14T00:52:33.935Z,99.99
2018-09-14T00:53:34.087Z,99.99
2018-09-14T00:54:34.241Z,99.99
2018-09-14T00:55:34.393Z,99.99
2018-09-14T00:56:34.543Z,99.99
2018-09-14T00:57:34.696Z,99.99
2018-09-14T00:58:34.850Z,99.99
2018-09-14T00:59:34.999Z,99.99
2018-09-14T01:00:35.156Z,99.99
2018-09-14T01:01:35.307Z,99.99
2018-09-14T01:02:35.458Z,99.99
2018-09-14T01:03:35.611Z,99.99
2018-09-14T01:04:35.763Z,99.99
2018-09-14T01:05:35.915Z,99.99
2018-09-14T01:06:36.066Z,99.99
2018-09-14T01:07:36.218Z,99.99
2018-09-14T01:08:36.369Z,99.99
2018-09-14T01:09:36.524Z,99.99
2018-09-14T01:10:36.676Z,99.99
2018-09-14T01:11:36.827Z,99.99
2018-09-14T01:12:36.981Z,99.99
2018-09-14T01:13:37.131Z,99.99
2018-09-14T01:14:37.283Z,99.99
2018-09-14T01:15:37.436Z,99.99
2018-09-14T01:16:37.589Z,99.99
2018-09-14T01:17:37.743Z,99.99
2018-09-14T01:18:37.896Z,99.99
2018-09-14T01:19:38.046Z,99.99
2018-09-14T01:20:38.198Z,99.99
2018-09-14T01:21:38.350Z,99.99
2018-09-14T01:22:38.502Z,99.99
2018-09-14T01:23:38.654Z,99.99
2018-09-14T01:24:38.806Z,99.99
2018-09-14T01:25:38.960Z,99.99
2018-09-14T01:26:39.110Z,99.99
2018-09-14T01:27:39.261Z,99.99
2018-09-14T01:28:39.411Z,99.99
2018-09-14T01:29:39.570Z,99.99
2018-09-14T01:30:39.716Z,99.99
2018-09-14T01:31:39.870Z,99.99
2018-09-14T01:32:40.022Z,99.99
2018-09-14T01:33:40.172Z,99.99
2018-09-14T01:34:40.324Z,99.99
2018-09-14T01:35:40.477Z,99.99
2018-09-14T01:36:40.630Z,99.99
2018-09-14T01:37:40.781Z,99.99
2018-09-14T01:38:40.937Z,99.99
2018-09-14T01:39:41.084Z,99.99
2018-09-14T01:40:41.239Z,99.99
2018-09-14T01:41:41.389Z,99.99
2018-09-14T01:42:41.542Z,99.99
2018-09-14T01:43:41.694Z,99.99
2018-09-14T01:44:41.845Z,99.99
2018-09-14T01:45:41.996Z,99.99
2018-09-14T01:46:42.150Z,99.99
2018-09-14T01:47:42.302Z,99.99
2018-09-14T01:48:42.460Z,99.99
2018-09-14T01:49:42.622Z,99.99
2018-09-14T01:50:42.764Z,99.99
2018-09-14T01:51:42.914Z,99.99
2018-09-14T01:52:43.064Z,99.99
2018-09-14T01:53:43.216Z,99.99
2018-09-14T01:54:43.368Z,99.99
2018-09-14T01:55:43.522Z,99.99
2018-09-14T01:56:43.673Z,99.99
2018-09-14T01:57:43.825Z,99.99
2018-09-14T01:58:43.975Z,99.99
2018-09-14T01:59:44.133Z,99.99
2018-09-14T02:00:44.285Z,99.99
2018-09-14T02:01:44.440Z,99.99
2018-09-14T02:02:44.590Z,99.99
2018-09-14T02:03:44.744Z,99.99
2018-09-14T02:04:44.893Z,99.99
2018-09-14T02:05:45.042Z,99.99
2018-09-14T02:06:45.201Z,99.99
2018-09-14T02:07:45.349Z,99.99
2018-09-14T02:08:45.503Z,99.99
2018-09-14T02:09:45.655Z,99.99
2018-09-14T02:10:45.811Z,99.99
2018-09-14T02:11:45.961Z,99.99
2018-09-14T02:12:46.114Z,99.99
2018-09-14T02:13:46.264Z,99.99
2018-09-14T02:14:46.416Z,99.99
2018-09-14T02:15:46.568Z,99.99
2018-09-14T02:16:46.717Z,99.99
2018-09-14T02:17:46.869Z,99.99
2018-09-14T02:18:47.021Z,99.99
2018-09-14T02:19:47.174Z,99.99
2018-09-14T02:20:47.329Z,99.99
2018-09-14T02:21:47.479Z,99.99
2018-09-14T02:22:47.628Z,99.99
2018-09-14T02:23:47.783Z,99.99
2018-09-14T02:24:47.937Z,99.99
2018-09-14T02:25:48.093Z,99.99
2018-09-14T02:26:48.238Z,99.99
2018-09-14T02:27:48.395Z,99.99
2018-09-14T02:28:48.545Z,99.99
2018-09-14T02:29:48.697Z,99.99
2018-09-14T02:30:48.852Z,99.99
2018-09-14T02:31:49.005Z,99.99
2018-09-14T02:32:49.155Z,99.99
2018-09-14T02:33:49.307Z,99.99
2018-09-14T02:34:49.461Z,99.99
2018-09-14T02:35:49.615Z,99.99
2018-09-14T02:36:49.769Z,99.99
2018-09-14T02:37:49.919Z,99.99
2018-09-14T02:38:50.069Z,99.99
2018-09-14T02:39:50.224Z,99.99
2018-09-14T02:40:50.375Z,99.99
2018-09-14T02:41:50.541Z,99.99
2018-09-14T02:42:50.679Z,99.99
2018-09-14T02:43:50.835Z,99.99
2018-09-14T02:44:50.987Z,99.99
2018-09-14T02:45:51.136Z,99.99
2018-09-14T02:46:51.289Z,99.99
2018-09-14T02:47:51.440Z,99.99
2018-09-14T02:48:51.591Z,99.99
2018-09-14T02:49:51.746Z,99.99
2018-09-14T02:50:51.902Z,99.99
2018-09-14T02:51:52.053Z,99.99
2018-09-14T02:52:52.205Z,99.99
2018-09-14T02:53:52.355Z,99.99
2018-09-14T02:54:52.508Z,99.99
2018-09-14T02:55:52.661Z,99.99
2018-09-14T02:56:52.816Z,99.99
2018-09-14T02:57:52.972Z,99.99
2018-09-14T02:58:53.121Z,99.99
2018-09-14T02:59:53.275Z,99.99
2018-09-14T03:00:53.426Z,99.99
2018-09-14T03:01:53.578Z,99.99
2018-09-14T03:02:53.730Z,99.99
2018-09-14T03:03:53.885Z,99.99
2018-09-14T03:04:54.039Z,99.99
2018-09-14T03:05:54.192Z,99.99
2018-09-14T03:06:54.342Z,99.99
2018-09-14T03:07:54.493Z,99.99
2018-09-14T03:08:54.647Z,99.99
2018-09-14T03:09:54.798Z,99.99
2018-09-14T03:10:54.948Z,99.99
2018-09-14T03:11:55.104Z,99.99
2018-09-14T03:12:55.253Z,99.99
2018-09-14T03:13:55.407Z,99.99
2018-09-14T03:14:55.557Z,99.99
2018-09-14T03:15:55.710Z,99.99
2018-09-14T03:16:55.862Z,99.99
2018-09-14T03:17:56.016Z,99.99
2018-09-14T03:18:56.169Z,99.99
2018-09-14T03:19:56.321Z,99.99
2018-09-14T03:20:56.475Z,99.99
2018-09-14T03:21:56.626Z,99.99
2018-09-14T03:22:56.776Z,99.99
2018-09-14T03:23:56.928Z,99.99
2018-09-14T03:24:57.081Z,99.99
2018-09-14T03:25:57.237Z,99.99
2018-09-14T03:26:57.384Z,99.99
2018-09-14T03:27:57.537Z,99.99
2018-09-14T03:28:57.687Z,99.99
2018-09-14T03:29:57.836Z,99.99
2018-09-14T03:30:57.989Z,99.99
2018-09-14T03:31:58.142Z,99.99
2018-09-14T03:32:58.293Z,99.99
2018-09-14T03:33:58.446Z,99.99
2018-09-14T03:34:58.595Z,99.99
2018-09-14T03:35:58.747Z,99.99
2018-09-14T03:36:58.899Z,99.99
2018-09-14T03:37:59.050Z,99.99
2018-09-14T03:38:59.204Z,99.99
2018-09-14T03:39:59.357Z,99.99
2018-09-14T03:40:59.508Z,99.99
2018-09-14T03:41:59.664Z,99.99
2018-09-14T03:42:59.815Z,99.99
2018-09-14T03:43:59.967Z,99.99
2018-09-14T03:45:00.119Z,99.99
2018-09-14T03:46:00.271Z,99.99
2018-09-14T03:47:00.422Z,99.99
2018-09-14T03:48:00.575Z,99.99
2018-09-14T03:49:00.727Z,99.99
2018-09-14T03:50:00.879Z,99.99
2018-09-14T03:51:01.031Z,99.99
2018-09-14T03:52:01.182Z,99.99
2018-09-14T03:53:01.336Z,99.99
2018-09-14T03:54:01.490Z,99.99
2018-09-14T03:55:01.641Z,99.99
2018-09-14T03:56:01.786Z,99.99
2018-09-14T03:57:01.943Z,99.99
2018-09-14T03:58:02.096Z,99.99
2018-09-14T03:59:02.244Z,99.99
2018-09-14T04:00:02.397Z,99.99
2018-09-14T04:01:02.549Z,99.99
2018-09-14T04:02:02.703Z,99.99
2018-09-14T04:03:02.854Z,99.99
2018-09-14T04:04:03.005Z,99.99
2018-09-14T04:05:03.157Z,99.99
2018-09-14T04:06:03.310Z,99.99
2018-09-14T04:07:03.465Z,99.99
2018-09-14T04:08:03.619Z,99.99
2018-09-14T04:09:03.771Z,99.99
2018-09-14T04:10:03.921Z,99.99
2018-09-14T04:11:04.073Z,99.99
2018-09-14T04:12:04.227Z,99.99
2018-09-14T04:13:04.380Z,99.99
2018-09-14T04:14:04.543Z,99.99
2018-09-14T04:15:04.685Z,99.99
2018-09-14T04:16:04.835Z,99.99
2018-09-14T04:17:04.988Z,99.99
2018-09-14T04:18:05.145Z,99.99
2018-09-14T04:19:05.292Z,99.99
2018-09-14T04:20:05.443Z,99.99
2018-09-14T04:21:05.596Z,99.99
2018-09-14T04:22:05.749Z,99.99
2018-09-14T04:23:05.909Z,99.99
2018-09-14T04:24:06.055Z,99.99
2018-09-14T04:25:06.212Z,99.99
2018-09-14T04:26:06.361Z,99.99
2018-09-14T04:27:06.513Z,99.99
2018-09-14T04:28:06.672Z,99.99
2018-09-14T04:29:06.818Z,99.99
2018-09-14T04:30:06.969Z,99.99
2018-09-14T04:31:07.123Z,99.99
2018-09-14T04:32:07.276Z,99.99
2018-09-14T04:33:07.428Z,99.99
2018-09-14T04:34:07.581Z,99.99
2018-09-14T04:35:07.733Z,99.99
2018-09-14T04:36:07.886Z,99.99
2018-09-14T04:37:08.038Z,99.99
2018-09-14T04:38:08.294Z,99.99
2018-09-14T04:39:08.344Z,99.99
2018-09-14T04:40:08.496Z,99.99
2018-09-14T04:41:08.647Z,99.99
2018-09-14T04:42:08.802Z,99.99
2018-09-14T04:43:08.955Z,99.99
2018-09-14T04:44:09.105Z,99.99
2018-09-14T04:45:09.257Z,99.99
2018-09-14T04:46:09.407Z,99.99
2018-09-14T04:47:09.563Z,99.99
2018-09-14T04:48:09.713Z,99.99
2018-09-14T04:49:09.864Z,99.99
2018-09-14T04:50:10.017Z,99.99
2018-09-14T04:51:10.204Z,99.99
2018-09-14T04:52:10.326Z,99.99
2018-09-14T04:53:10.492Z,99.99
2018-09-14T04:54:10.625Z,99.99
2018-09-14T04:55:10.777Z,99.99
2018-09-14T04:56:10.980Z,99.99
2018-09-14T04:57:11.085Z,99.99
2018-09-14T04:58:11.236Z,99.99
2018-09-14T04:59:11.381Z,99.99
2018-09-14T05:00:11.536Z,99.99
2018-09-14T05:01:11.690Z,99.99
2018-09-14T05:02:11.846Z,99.99
2018-09-14T05:03:12.043Z,99.99
2018-09-14T05:04:12.149Z,99.99
2018-09-14T05:05:12.299Z,99.99
2018-09-14T05:06:12.455Z,99.99
2018-09-14T05:07:12.608Z,99.99
2018-09-14T05:08:12.757Z,99.99
2018-09-14T05:09:12.909Z,99.99
2018-09-14T05:10:13.060Z,99.99
2018-09-14T05:11:13.213Z,99.99
2018-09-14T05:12:13.364Z,99.52
2018-09-14T05:13:13.517Z,99.67
2018-09-14T05:14:13.720Z,99.57
2018-09-14T05:15:13.821Z,99.38
2018-09-14T05:16:13.973Z,99.48
2018-09-14T05:17:14.124Z,99.38
2018-09-14T05:18:14.278Z,99.86
2018-09-14T05:19:14.428Z,99.57
2018-09-14T05:20:14.580Z,99.38
2018-09-14T05:21:14.734Z,99.96
2018-09-14T05:22:16.435Z,99.86
2018-09-14T05:23:15.080Z,99.99
2018-09-14T05:24:15.302Z,99.99
2018-09-14T05:25:15.378Z,99.86
2018-09-14T05:26:15.537Z,98.90
2018-09-14T05:27:15.686Z,99.10
2018-09-14T05:28:15.837Z,99.48
2018-09-14T05:29:15.989Z,98.90
2018-09-14T05:30:16.145Z,98.43
2018-09-14T05:31:16.297Z,99.10
2018-09-14T05:32:16.448Z,99.10
2018-09-14T05:33:16.602Z,98.71
2018-09-14T05:34:16.758Z,98.61
2018-09-14T05:35:16.910Z,98.52
2018-09-14T05:36:17.057Z,98.52
2018-09-14T05:37:17.212Z,98.61
2018-09-14T05:38:17.381Z,99.00
2018-09-14T05:39:17.516Z,98.71
2018-09-14T05:40:17.675Z,99.10
2018-09-14T05:41:17.829Z,99.19
2018-09-14T05:42:17.976Z,98.71
2018-09-14T05:43:18.131Z,98.52
2018-09-14T05:44:18.281Z,98.33
2018-09-14T05:45:18.438Z,98.14
2018-09-14T05:46:18.587Z,97.95
2018-09-14T05:47:18.744Z,98.04
2018-09-14T05:48:18.897Z,97.95
2018-09-14T05:49:19.048Z,98.61
2018-09-14T05:50:19.200Z,98.43
2018-09-14T05:51:19.353Z,98.14
2018-09-14T05:52:19.508Z,98.33
2018-09-14T05:53:19.660Z,98.24
2018-09-14T05:54:19.831Z,98.43
2018-09-14T05:55:19.970Z,97.56
2018-09-14T05:56:20.121Z,97.85
2018-09-14T05:57:20.276Z,97.85
2018-09-14T05:58:20.425Z,97.95
2018-09-14T05:59:20.579Z,97.66
2018-09-14T06:00:20.731Z,97.37
2018-09-14T06:01:20.883Z,97.75
2018-09-14T06:02:21.034Z,97.08
2018-09-14T06:03:21.187Z,97.75
2018-09-14T06:04:21.341Z,97.75
2018-09-14T06:05:21.492Z,97.75
2018-09-14T06:06:21.646Z,96.99
2018-09-14T06:07:21.798Z,96.89
2018-09-14T06:08:21.951Z,97.47
2018-09-14T06:09:22.103Z,97.28
2018-09-14T06:10:22.260Z,96.99
2018-09-14T06:11:22.407Z,97.66
2018-09-14T06:12:22.558Z,97.47
2018-09-14T06:13:22.709Z,96.80
2018-09-14T06:14:22.863Z,96.89
2018-09-14T06:15:23.016Z,97.66
2018-09-14T06:16:23.166Z,96.80
2018-09-14T06:17:23.319Z,96.51
2018-09-14T06:18:23.470Z,96.22
2018-09-14T06:19:23.624Z,96.99
2018-09-14T06:20:23.779Z,96.70
2018-09-14T06:21:23.932Z,96.80
2018-09-14T06:22:24.119Z,97.37
2018-09-14T06:23:24.240Z,96.80
2018-09-14T06:24:24.394Z,96.51
2018-09-14T06:25:24.544Z,97.18
2018-09-14T06:26:24.699Z,96.80
2018-09-14T06:27:24.849Z,97.18
2018-09-14T06:28:25.001Z,97.47
2018-09-14T06:29:25.155Z,96.99
2018-09-14T06:30:25.339Z,96.80
2018-09-14T06:31:25.461Z,97.56
2018-09-14T06:32:25.614Z,97.08
2018-09-14T06:33:25.766Z,96.80
2018-09-14T06:34:25.917Z,96.42
2018-09-14T06:35:26.075Z,96.42
2018-09-14T06:36:26.225Z,96.22
2018-09-14T06:37:26.377Z,96.80
2018-09-14T06:38:26.531Z,96.84
2018-09-14T06:39:26.682Z,97.23
2018-09-14T06:40:26.834Z,96.84
2018-09-14T06:41:26.990Z,96.37
2018-09-14T06:42:27.142Z,95.98
2018-09-14T06:43:27.293Z,95.41
2018-09-14T06:44:27.447Z,95.70
2018-09-14T06:45:27.679Z,95.89
2018-09-14T06:46:27.753Z,96.27
2018-09-14T06:47:27.907Z,95.22
2018-09-14T06:48:28.056Z,95.51
2018-09-14T06:49:28.209Z,95.61
2018-09-14T06:50:28.360Z,96.18
2018-09-14T06:51:28.514Z,95.70
2018-09-14T06:52:28.672Z,95.61
2018-09-14T06:53:28.899Z,95.41
2018-09-14T06:54:28.969Z,95.98
2018-09-14T06:55:29.125Z,95.70
2018-09-14T06:56:29.283Z,95.31
2018-09-14T06:57:29.434Z,95.61
2018-09-14T06:58:29.590Z,95.41
2018-09-14T06:59:29.739Z,94.55
2018-09-14T07:00:30.124Z,94.36
2018-09-14T07:01:30.043Z,95.70
2018-09-14T07:02:30.195Z,96.18
2018-09-14T07:03:30.346Z,95.84
2018-09-14T07:04:30.501Z,95.51
2018-09-14T07:05:30.653Z,95.70
2018-09-14T07:06:30.824Z,94.74
2018-09-14T07:07:30.959Z,96.18
2018-09-14T07:08:31.111Z,95.89
2018-09-14T07:09:31.266Z,94.93
2018-09-14T07:10:31.417Z,95.51
2018-09-14T07:11:31.628Z,94.74
2018-09-14T07:12:31.724Z,95.61
2018-09-14T07:13:31.879Z,95.31
2018-09-14T07:14:32.033Z,95.98
2018-09-14T07:15:32.184Z,95.51
2018-09-14T07:16:32.336Z,95.51
2018-09-14T07:17:32.486Z,95.70
2018-09-14T07:18:32.641Z,95.31
2018-09-14T07:19:32.790Z,95.03
2018-09-14T07:20:32.944Z,94.93
2018-09-14T07:21:33.097Z,94.55
2018-09-14T07:22:33.250Z,94.02
2018-09-14T07:23:33.403Z,94.69
2018-09-14T07:24:33.593Z,93.35
2018-09-14T07:25:33.707Z,92.87
2018-09-14T07:26:33.877Z,93.50
2018-09-14T07:27:34.034Z,94.79
2018-09-14T07:28:34.171Z,95.75
2018-09-14T07:29:34.318Z,95.46
2018-09-14T07:30:34.499Z,94.89
2018-09-14T07:31:34.689Z,93.45
2018-09-14T07:32:34.782Z,93.45
2018-09-14T07:33:34.935Z,93.74
2018-09-14T07:34:35.085Z,93.35
2018-09-14T07:35:35.237Z,93.64
2018-09-14T07:36:35.450Z,94.60
2018-09-14T07:37:35.544Z,94.89
2018-09-14T07:38:35.695Z,94.21
2018-09-14T07:39:35.849Z,93.64
2018-09-14T07:40:36.003Z,93.45
2018-09-14T07:41:36.157Z,94.79
2018-09-14T07:42:36.376Z,94.60
2018-09-14T07:43:36.462Z,94.60
2018-09-14T07:44:36.616Z,94.40
2018-09-14T07:45:36.771Z,93.54
2018-09-14T07:46:36.920Z,93.64
2018-09-14T07:47:37.073Z,93.64
2018-09-14T07:48:37.226Z,93.88
2018-09-14T07:49:37.379Z,92.78
2018-09-14T07:50:37.531Z,92.68
2018-09-14T07:51:37.685Z,92.87
2018-09-14T07:52:37.838Z,92.97
2018-09-14T07:53:37.994Z,93.26
2018-09-14T07:54:38.143Z,93.40
2018-09-14T07:55:38.296Z,92.78
2018-09-14T07:56:38.449Z,92.49
2018-09-14T07:57:38.602Z,92.87
2018-09-14T07:58:38.754Z,93.26
2018-09-14T07:59:38.907Z,93.83
2018-09-14T08:00:39.061Z,93.26
2018-09-14T08:01:39.213Z,92.82
2018-09-14T08:02:39.365Z,92.54
2018-09-14T08:03:39.523Z,91.58
2018-09-14T08:04:39.673Z,92.06
2018-09-14T08:05:39.827Z,91.67
2018-09-14T08:06:39.979Z,91.10
2018-09-14T08:07:40.134Z,91.43
2018-09-14T08:08:40.288Z,91.24
2018-09-14T08:09:40.440Z,89.90
2018-09-14T08:10:40.596Z,88.51
2018-09-14T08:11:40.746Z,87.84
2018-09-14T08:12:40.898Z,87.16
2018-09-14T08:13:41.056Z,86.49
2018-09-14T08:14:41.204Z,86.78
2018-09-14T08:15:41.359Z,88.51
2018-09-14T08:16:41.513Z,88.98
2018-09-14T08:17:41.668Z,87.74
2018-09-14T08:18:41.823Z,87.49
2018-09-14T08:19:41.976Z,87.49
2018-09-14T08:20:42.132Z,87.49
2018-09-14T08:21:42.416Z,85.96
2018-09-14T08:22:42.437Z,86.30
2018-09-14T08:23:42.590Z,86.88
2018-09-14T08:24:42.752Z,87.74
2018-09-14T08:25:42.903Z,87.70
2018-09-14T08:26:43.095Z,89.32
2018-09-14T08:27:43.212Z,89.42
2018-09-14T08:28:43.366Z,89.80
2018-09-14T08:29:43.521Z,89.42
2018-09-14T08:30:43.675Z,89.18
2018-09-14T08:31:43.830Z,88.12
2018-09-14T08:32:43.986Z,87.55
2018-09-14T08:33:44.137Z,87.64
2018-09-14T08:34:44.294Z,87.93
2018-09-14T08:35:44.455Z,88.41
2018-09-14T08:36:44.603Z,87.68
2018-09-14T08:37:44.757Z,87.21
2018-09-14T08:38:44.910Z,88.07
2018-09-14T08:39:45.065Z,86.82
2018-09-14T08:40:45.223Z,86.05
2018-09-14T08:41:45.368Z,85.48
2018-09-14T08:42:45.521Z,85.19
2018-09-14T08:43:45.675Z,85.48
2018-09-14T08:44:45.829Z,85.42
2018-09-14T08:45:45.985Z,85.04
2018-09-14T08:46:46.141Z,83.60
2018-09-14T08:47:46.344Z,83.70
2018-09-14T08:48:46.480Z,83.60
2018-09-14T08:49:46.631Z,84.04
2018-09-14T08:50:46.791Z,85.10
2018-09-14T08:51:46.944Z,85.48
2018-09-14T08:52:47.099Z,84.81
2018-09-14T08:53:47.253Z,85.77
2018-09-14T08:54:47.406Z,86.05
2018-09-14T08:55:47.562Z,87.01
2018-09-14T08:56:47.716Z,86.54
2018-09-14T08:57:47.872Z,86.48
2018-09-14T08:58:48.031Z,85.24
2018-09-14T08:59:48.184Z,83.80
2018-09-14T09:00:48.421Z,84.08
2018-09-14T09:01:48.492Z,83.70
2018-09-14T09:02:48.647Z,83.22
2018-09-14T09:03:48.871Z,83.22
2018-09-14T09:04:48.956Z,83.03
2018-09-14T09:05:49.110Z,82.64
2018-09-14T09:06:49.265Z,83.65
2018-09-14T09:07:49.420Z,84.23
2018-09-14T09:08:49.575Z,84.23
2018-09-14T09:09:49.727Z,83.94
2018-09-14T09:10:49.880Z,84.71
2018-09-14T09:11:50.035Z,85.96
2018-09-14T09:12:50.189Z,86.82
2018-09-14T09:13:50.347Z,86.72
2018-09-14T09:14:50.498Z,86.54
2018-09-14T09:15:50.653Z,85.67
2018-09-14T09:16:50.808Z,86.48
2018-09-14T09:17:51.089Z,86.34
2018-09-14T09:18:51.118Z,85.58
2018-09-14T09:19:51.276Z,84.85
2018-09-14T09:20:51.428Z,85.81
2018-09-14T09:21:51.599Z,85.77
2018-09-14T09:22:51.738Z,86.25
2018-09-14T09:23:51.894Z,85.19
2018-09-14T09:24:52.046Z,85.33
2018-09-14T09:25:52.201Z,84.66
2018-09-14T09:26:52.356Z,84.66
2018-09-14T09:27:52.511Z,84.95
2018-09-14T09:28:52.666Z,84.37
2018-09-14T09:29:52.819Z,83.60
2018-09-14T09:30:52.972Z,83.70
2018-09-14T09:31:53.130Z,83.60
2018-09-14T09:32:53.282Z,83.60
2018-09-14T09:33:53.438Z,83.51
2018-09-14T09:34:53.594Z,84.91
2018-09-14T09:35:53.752Z,85.10
2018-09-14T09:36:53.903Z,85.00
2018-09-14T09:37:54.058Z,86.05
2018-09-14T09:38:54.212Z,86.54
2018-09-14T09:39:54.365Z,87.21
2018-09-14T09:40:54.520Z,86.82
2018-09-14T09:41:54.672Z,86.38
2018-09-14T09:42:54.828Z,84.47
2018-09-14T09:43:55.046Z,83.70
2018-09-14T09:44:55.138Z,83.16
2018-09-14T09:45:55.292Z,82.87
2018-09-14T09:46:55.448Z,83.11
2018-09-14T09:47:55.603Z,82.43
2018-09-14T09:48:55.763Z,82.34
2018-09-14T09:49:55.919Z,82.05
2018-09-14T09:50:56.152Z,81.67
2018-09-14T09:51:56.223Z,80.99
2018-09-14T09:52:56.383Z,81.43
2018-09-14T09:53:56.536Z,81.96
2018-09-14T09:54:56.690Z,81.82
2018-09-14T09:55:56.845Z,82.78
2018-09-14T09:56:57.002Z,82.59
2018-09-14T09:57:57.158Z,82.87
2018-09-14T09:58:57.313Z,83.12
2018-09-14T09:59:57.470Z,83.12
2018-09-14T10:00:57.622Z,83.98
2018-09-14T10:01:57.775Z,83.89
2018-09-14T10:02:57.931Z,84.42
2018-09-14T10:03:58.152Z,84.95
2018-09-14T10:04:58.243Z,83.80
2018-09-14T10:05:58.395Z,83.45
2018-09-14T10:06:58.552Z,83.07
2018-09-14T10:07:58.727Z,82.34
2018-09-14T10:08:58.866Z,81.96
2018-09-14T10:09:59.020Z,81.57
2018-09-14T10:10:59.174Z,81.86
2018-09-14T10:11:59.328Z,80.71
2018-09-14T10:12:59.485Z,78.92
2018-09-14T10:13:59.650Z,78.92
2018-09-14T10:14:59.843Z,78.69
2018-09-14T10:15:59.956Z,79.17
2018-09-14T10:17:00.103Z,78.44
2018-09-14T10:18:00.296Z,78.34
2018-09-14T10:19:00.408Z,77.96
2018-09-14T10:20:00.569Z,77.13
2018-09-14T10:21:00.778Z,77.42
2018-09-14T10:22:00.878Z,76.56
2018-09-14T10:23:01.034Z,74.96
2018-09-14T10:24:01.190Z,74.48
2018-09-14T10:25:01.344Z,72.36
2018-09-14T10:26:01.500Z,73.42
2018-09-14T10:27:01.656Z,74.09
2018-09-14T10:28:01.810Z,73.26
2018-09-14T10:29:02.050Z,71.69
2018-09-14T10:30:02.123Z,71.78
2018-09-14T10:31:02.275Z,71.20
2018-09-14T10:32:02.436Z,72.26
2018-09-14T10:33:02.590Z,71.69
2018-09-14T10:34:02.765Z,71.88
2018-09-14T10:35:02.916Z,71.72
2018-09-14T10:36:03.061Z,71.34
2018-09-14T10:37:03.259Z,72.49
2018-09-14T10:38:03.368Z,71.62
2018-09-14T10:39:03.524Z,71.34
2018-09-14T10:40:03.695Z,70.37
2018-09-14T10:41:03.837Z,71.28
2018-09-14T10:42:03.993Z,71.24
2018-09-14T10:43:04.153Z,71.14
2018-09-14T10:44:04.308Z,70.47
2018-09-14T10:45:04.477Z,70.50
2018-09-14T10:46:04.622Z,71.18
2018-09-14T10:47:04.777Z,72.72
2018-09-14T10:48:04.934Z,71.12
2018-09-14T10:49:05.089Z,70.57
2018-09-14T10:50:05.276Z,69.90
2018-09-14T10:51:05.402Z,68.45
2018-09-14T10:52:05.562Z,68.16
2018-09-14T10:53:05.718Z,67.49
2018-09-14T10:54:05.906Z,67.78
2018-09-14T10:55:06.033Z,66.33
2018-09-14T10:56:06.191Z,66.43
2018-09-14T10:57:06.346Z,66.62
2018-09-14T10:58:06.503Z,66.27
2018-09-14T10:59:06.660Z,65.30
2018-09-14T11:00:06.816Z,65.20
2018-09-14T11:01:06.973Z,64.18
2018-09-14T11:02:07.133Z,63.70
2018-09-14T11:03:07.289Z,64.47
2018-09-14T11:04:07.447Z,64.95
2018-09-14T11:05:07.606Z,64.40
2018-09-14T11:06:07.767Z,62.76
2018-09-14T11:07:07.988Z,64.79
2018-09-14T11:08:08.079Z,63.34
2018-09-14T11:09:08.237Z,61.44
2018-09-14T11:10:08.395Z,61.25
2018-09-14T11:11:08.555Z,63.05
2018-09-14T11:12:08.717Z,62.95
2018-09-14T11:13:08.938Z,62.54
2018-09-14T11:14:09.032Z,61.28
2018-09-14T11:15:09.190Z,60.89
2018-09-14T11:16:09.346Z,60.73
2018-09-14T11:17:09.507Z,60.80
2018-09-14T11:18:09.663Z,60.99
2018-09-14T11:19:09.821Z,61.16
2018-09-14T11:20:09.981Z,61.32
2018-09-14T11:21:10.138Z,63.31
2018-09-14T11:22:10.300Z,64.63
2018-09-14T11:23:10.455Z,65.01
2018-09-14T11:24:10.613Z,65.40
2018-09-14T11:25:10.845Z,65.59
2018-09-14T11:26:10.929Z,66.65
2018-09-14T11:27:11.087Z,66.75
2018-09-14T11:28:11.246Z,66.33
2018-09-14T11:29:11.406Z,66.85
2018-09-14T11:30:11.558Z,67.39
2018-09-14T11:31:11.716Z,67.77
2018-09-14T11:32:11.908Z,67.87
2018-09-14T11:33:12.032Z,67.19
2018-09-14T11:34:12.232Z,67.03
2018-09-14T11:35:12.350Z,66.78
2018-09-14T11:36:12.505Z,65.53
2018-09-14T11:37:12.684Z,64.95
2018-09-14T11:38:12.904Z,64.95
2018-09-14T11:39:12.982Z,64.56
2018-09-14T11:40:13.140Z,64.31
2018-09-14T11:41:13.299Z,64.02
2018-09-14T11:42:13.457Z,63.82
2018-09-14T11:43:13.613Z,64.31
2018-09-14T11:44:13.769Z,62.60
2018-09-14T11:45:13.964Z,61.83
2018-09-14T11:46:14.139Z,62.05
2018-09-14T11:47:14.245Z,62.34
2018-09-14T11:48:14.398Z,63.02
2018-09-14T11:49:14.557Z,60.77
2018-09-14T11:50:14.715Z,61.16
2018-09-14T11:51:14.872Z,61.06
2018-09-14T11:52:15.030Z,60.89
2018-09-14T11:53:15.187Z,60.51
2018-09-14T11:54:15.507Z,61.09
2018-09-14T11:55:15.504Z,60.03
2018-09-14T11:56:15.661Z,60.48
2018-09-14T11:57:15.819Z,61.06
2018-09-14T11:58:16.047Z,60.80
2018-09-14T11:59:16.136Z,60.03
2018-09-14T12:00:16.294Z,59.00
2018-09-14T12:01:16.459Z,59.86
2018-09-14T12:02:16.608Z,59.58
2018-09-14T12:03:16.767Z,58.29
2018-09-14T12:04:16.943Z,59.64
2018-09-14T12:05:17.080Z,59.06
2018-09-14T12:06:17.239Z,59.78
2018-09-14T12:07:17.395Z,60.74
2018-09-14T12:08:17.554Z,60.86
2018-09-14T12:09:17.712Z,60.93
2018-09-14T12:10:17.869Z,60.93
2018-09-14T12:11:18.029Z,61.03
2018-09-14T12:12:18.187Z,61.51
2018-09-14T12:13:18.343Z,60.74
2018-09-14T12:14:18.503Z,60.74
2018-09-14T12:15:18.659Z,61.03
2018-09-14T12:16:18.822Z,61.32
2018-09-14T12:17:18.983Z,60.83
2018-09-14T12:18:19.137Z,60.68
2018-09-14T12:19:19.296Z,62.02
2018-09-14T12:20:19.457Z,60.96
2018-09-14T12:21:19.616Z,60.13
2018-09-14T12:22:19.806Z,60.89
2018-09-14T12:23:19.937Z,59.16
2018-09-14T12:24:20.098Z,59.32
2018-09-14T12:25:20.257Z,59.80
2018-09-14T12:26:20.417Z,59.80
2018-09-14T12:27:20.578Z,59.23
2018-09-14T12:28:20.741Z,59.23
2018-09-14T12:29:20.890Z,59.32
2018-09-14T12:30:21.050Z,59.32
2018-09-14T12:31:21.204Z,58.97
2018-09-14T12:32:21.360Z,59.25
2018-09-14T12:33:21.517Z,58.94
2018-09-14T12:34:21.674Z,58.75
2018-09-14T12:35:21.844Z,59.06
2018-09-14T12:36:21.999Z,58.68
2018-09-14T12:37:22.157Z,58.39
2018-09-14T12:38:22.315Z,57.64
2018-09-14T12:39:22.473Z,59.80
2018-09-14T12:40:22.629Z,56.90
2018-09-14T12:41:22.786Z,56.13
2018-09-14T12:42:22.949Z,56.03
2018-09-14T12:43:23.102Z,56.00
2018-09-14T12:44:23.262Z,55.74
2018-09-14T12:45:23.418Z,55.16
2018-09-14T12:46:23.577Z,54.61
2018-09-14T12:47:23.736Z,54.32
2018-09-14T12:48:23.894Z,54.87
2018-09-14T12:49:24.063Z,54.68
2018-09-14T12:50:24.212Z,54.84
2018-09-14T12:51:24.372Z,55.52
2018-09-14T12:52:24.529Z,54.97
2018-09-14T12:53:24.686Z,55.26
2018-09-14T12:54:24.845Z,55.33